createdAt,value
2022-10-18T00:04:08.499Z,102912.34
2022-10-18T00:09:06.244Z,102916.72
2022-10-18T00:14:05.756Z,102975.81
2022-10-18T00:19:14.458Z,102865.56
2022-10-18T00:24:15.211Z,102843.03
2022-10-18T00:29:16.073Z,102935.06
2022-10-18T00:34:16.797Z,102968.13
2022-10-18T00:39:20.391Z,102845.56
2022-10-18T00:44:57.516Z,102958.47
2022-10-18T00:50:00.617Z,102925.47
2022-10-18T00:55:02.877Z,102930.72
2022-10-18T01:00:03.995Z,102875.94
2022-10-18T01:05:00.934Z,102921.06
2022-10-18T01:10:30.712Z,102941.97
2022-10-18T01:15:43.970Z,102866.44
2022-10-18T01:21:19.622Z,102883.81
2022-10-18T01:26:34.448Z,102935.06
2022-10-18T01:31:35.083Z,102908.97
2022-10-18T01:36:35.782Z,102902.03
2022-10-18T01:41:46.897Z,102907.25
2022-10-18T01:46:45.949Z,102851.69
2022-10-18T01:51:42.813Z,102906.50
2022-10-18T01:56:47.588Z,102852.66
2022-10-18T02:02:02.823Z,102897.78
2022-10-18T02:07:07.382Z,102821.41
2022-10-18T02:12:10.471Z,102841.34
2022-10-18T02:17:12.040Z,102839.66
2022-10-18T02:22:20.092Z,102853.63
2022-10-18T02:27:17.236Z,102900.63
2022-10-18T02:32:20.686Z,102839.84
2022-10-18T02:37:18.161Z,102898.00
2022-10-18T02:42:15.679Z,102852.09
2022-10-18T02:47:20.420Z,102881.63
2022-10-18T02:52:17.433Z,102902.59
2022-10-18T02:57:19.566Z,102919.19
2022-10-18T03:02:17.402Z,102852.25
2022-10-18T03:07:21.170Z,102790.56
2022-10-18T03:12:24.475Z,102907.94
2022-10-18T03:17:25.225Z,102858.47
2022-10-18T03:27:24.160Z,102796.06
2022-10-18T03:32:30.281Z,102853.41
2022-10-18T03:37:32.628Z,102850.84
2022-10-18T03:42:32.323Z,102883.88
2022-10-18T03:47:32.999Z,102777.00
2022-10-18T03:52:30.322Z,102823.97
2022-10-18T03:57:27.598Z,102822.25
2022-10-18T04:02:25.207Z,102847.47
2022-10-18T04:07:41.236Z,102903.09
2022-10-18T04:12:38.157Z,102894.41
2022-10-18T04:17:47.343Z,102881.38
2022-10-18T04:23:11.222Z,102748.44
2022-10-18T04:28:51.618Z,102801.50
2022-10-18T04:34:27.132Z,102829.41
2022-10-18T04:39:27.729Z,102900.63
2022-10-18T04:44:25.048Z,102856.28
2022-10-18T04:49:22.245Z,102848.50
2022-10-18T04:54:22.866Z,102883.28
2022-10-18T04:59:33.885Z,102889.31
2022-10-18T05:09:54.514Z,102893.50
2022-10-18T05:14:53.303Z,102889.88
2022-10-18T05:20:10.910Z,102855.88
2022-10-18T05:25:21.320Z,102814.09
2022-10-18T05:30:28.593Z,102806.97
2022-10-18T05:35:28.453Z,102861.59
2022-10-18T05:40:29.343Z,102869.34
2022-10-18T05:45:33.281Z,102796.28
2022-10-18T05:51:03.714Z,102917.75
2022-10-18T05:56:03.546Z,102777.81
2022-10-18T06:01:06.320Z,102827.13
2022-10-18T06:06:23.525Z,102822.56
2022-10-18T06:12:31.394Z,102807.47
2022-10-18T06:18:09.730Z,102782.91
2022-10-18T06:23:44.139Z,102786.03
2022-10-18T06:28:41.570Z,102887.97
2022-10-18T06:33:39.876Z,102866.09
2022-10-18T06:38:36.965Z,102870.00
2022-10-18T06:43:40.238Z,102862.69
2022-10-18T06:48:41.750Z,102913.47
2022-10-18T06:53:44.581Z,102892.22
2022-10-18T06:59:22.975Z,102904.88
2022-10-18T07:04:22.333Z,102847.34
2022-10-18T07:09:25.519Z,102843.47
2022-10-18T07:14:26.915Z,102888.19
2022-10-18T07:19:26.687Z,102880.84
2022-10-18T07:24:23.782Z,102916.03
2022-10-18T07:29:25.931Z,102879.78
2022-10-18T07:34:28.362Z,102790.97
2022-10-18T07:39:42.850Z,102868.59
2022-10-18T07:45:13.832Z,102773.72
2022-10-18T07:50:52.608Z,102885.50
2022-10-18T07:56:27.475Z,102828.81
2022-10-18T08:01:27.724Z,102794.53
2022-10-18T08:06:24.961Z,102765.41
2022-10-18T08:11:26.065Z,102878.97
2022-10-18T08:16:24.678Z,102871.38
2022-10-18T08:21:21.772Z,102827.44
2022-10-18T08:26:51.714Z,102820.41
2022-10-18T08:32:11.889Z,102786.56
2022-10-18T08:37:56.752Z,102773.00
2022-10-18T08:43:03.421Z,102776.13
2022-10-18T08:48:01.819Z,102764.44
2022-10-18T08:53:06.270Z,102787.34
2022-10-18T08:59:03.443Z,102719.34
2022-10-18T09:04:35.011Z,102752.13
2022-10-18T09:09:58.425Z,102762.75
2022-10-18T09:15:17.709Z,102794.53
2022-10-18T09:20:59.395Z,102754.00
2022-10-18T09:26:40.281Z,102786.72
2022-10-18T09:31:50.088Z,102769.41
2022-10-18T09:36:51.175Z,102665.06
2022-10-18T09:42:12.095Z,102658.09
2022-10-18T09:47:17.145Z,102702.69
2022-10-18T09:52:19.059Z,102677.97
2022-10-18T09:57:48.452Z,102614.47
2022-10-18T10:03:07.130Z,102668.19
2022-10-18T10:58:33.334Z,102498.69
2022-10-18T11:38:33.231Z,102466.13
2022-10-18T12:13:28.039Z,102498.25
2022-10-18T12:33:33.476Z,102381.19
2022-10-18T13:13:57.525Z,102420.59
2022-10-18T13:39:47.333Z,102382.16
2022-10-18T15:04:39.599Z,102277.22
2022-10-18T15:16:36.522Z,102225.41
2022-10-18T17:21:15.638Z,102087.41
2022-10-18T20:12:02.591Z,101917.06
2022-10-18T20:30:41.138Z,101945.69
2022-10-18T20:37:03.703Z,101994.66
2022-10-18T20:56:11.277Z,102037.56
2022-10-18T21:03:02.473Z,101854.69
2022-10-18T21:22:04.509Z,101908.06
2022-10-18T21:28:00.906Z,101874.56
2022-10-18T21:33:59.788Z,101815.16
2022-10-18T21:47:41.377Z,101949.19
2022-10-18T21:53:02.323Z,101810.56
2022-10-18T21:59:48.178Z,101891.19
2022-10-18T22:05:37.770Z,101792.38
2022-10-18T22:12:22.265Z,101781.22
2022-10-18T22:17:58.406Z,101782.88
2022-10-18T22:28:33.464Z,101748.44
2022-10-18T22:33:47.072Z,101890.94
2022-10-18T22:39:08.210Z,101763.88
2022-10-18T22:44:32.583Z,101728.72
2022-10-18T22:50:06.506Z,101748.47
2022-10-18T22:55:51.297Z,101729.13
2022-10-18T23:07:53.503Z,101870.91
2022-10-18T23:14:13.146Z,101722.53
2022-10-18T23:20:14.372Z,101705.31
2022-10-18T23:25:36.227Z,101745.66
2022-10-18T23:37:12.929Z,101721.44
2022-10-18T23:42:43.844Z,101727.47
2022-10-18T23:53:45.184Z,101722.25
